Time;durP1;ratioP1;P1;durP2;ratioP2;P2;SDS_P1;SDS_P2;PMS_P1;PMS_P2;Temp;Humidity;BMP_temperature;BMP_pressure;BME280_temperature;BME280_humidity;BME280_pressure;Samples;Min_cycle;Max_cycle;Signal;HPM_P1;HPM_P2
2021/05/17 00:01:16;;;;;;;;;14.75;14.75;;;;;;;;3723817;37;21060;-55
2021/05/17 00:03:45;;;;;;;;;14.00;13.25;;;;;;;;3723975;37;20877;-56
2021/05/17 00:06:11;;;;;;;;;15.50;15.00;;;;;;;;3724652;38;17992;-55
2021/05/17 00:08:37;;;;;;;;;14.75;14.75;;;;;;;;3724479;37;21047;-55
2021/05/17 00:11:03;;;;;;;;;15.75;15.75;;;;;;;;3724487;38;21045;-56
2021/05/17 00:13:29;;;;;;;;;14.25;14.25;;;;;;;;3724610;37;21011;-56
2021/05/17 00:15:55;;;;;;;;;17.50;15.75;;;;;;;;3724647;38;17972;-56
2021/05/17 00:18:21;;;;;;;;;17.75;17.75;;;;;;;;3724508;38;17990;-56
2021/05/17 00:20:48;;;;;;;;;16.25;16.00;;;;;;;;3724416;38;17972;-56
2021/05/17 00:23:15;;;;;;;;;16.75;16.50;;;;;;;;3724520;37;21020;-56
2021/05/17 00:25:41;;;;;;;;;17.00;16.50;;;;;;;;3724608;38;21010;-56
2021/05/17 00:28:07;;;;;;;;;14.00;14.00;;;;;;;;3724736;37;20990;-56
2021/05/17 00:30:33;;;;;;;;;17.75;17.00;;;;;;;;3724807;38;20999;-56
2021/05/17 00:33:01;;;;;;;;;20.25;18.50;;;;;;;;3724800;38;17946;-56
2021/05/17 00:35:27;;;;;;;;;16.25;16.00;;;;;;;;3724423;38;21092;-56
2021/05/17 00:37:53;;;;;;;;;14.50;14.00;;;;;;;;3724428;37;20998;-56
2021/05/17 00:40:20;;;;;;;;;15.50;15.50;;;;;;;;3724432;37;20989;-57
2021/05/17 00:42:46;;;;;;;;;13.75;13.00;;;;;;;;3724451;37;20974;-56
2021/05/17 00:45:15;;;;;;;;;14.00;13.25;;;;;;;;3724370;38;21038;-58
2021/05/17 00:47:42;;;;;;;;;15.50;15.25;;;;;;;;3724631;38;20974;-56
2021/05/17 00:50:09;;;;;;;;;16.25;14.50;;;;;;;;3724463;37;20988;-56
2021/05/17 00:52:35;;;;;;;;;12.50;12.25;;;;;;;;3724278;37;20964;-56
2021/05/17 00:55:03;;;;;;;;;17.75;15.00;;;;;;;;3724253;37;20955;-56
2021/05/17 00:57:29;;;;;;;;;18.75;17.50;;;;;;;;3724248;37;20961;-58
2021/05/17 00:59:56;;;;;;;;;15.00;14.75;;;;;;;;3724134;37;20980;-58
2021/05/17 01:02:22;;;;;;;;;16.00;14.50;;;;;;;;3724317;37;20968;-58
2021/05/17 01:04:48;;;;;;;;;18.25;18.00;;;;;;;;3724303;37;20943;-57
2021/05/17 01:07:25;;;;;;;;;15.75;15.75;;;;;;;;3724563;37;17914;-57
2021/05/17 01:09:52;;;;;;;;;15.75;15.75;;;;;;;;3723971;37;20949;-57
2021/05/17 01:12:18;;;;;;;;;16.75;16.75;;;;;;;;3724381;37;20954;-57
2021/05/17 01:14:45;;;;;;;;;16.50;16.50;;;;;;;;3724457;38;21001;-57
2021/05/17 01:17:14;;;;;;;;;17.50;16.25;;;;;;;;3724424;37;17905;-57
2021/05/17 01:19:41;;;;;;;;;16.00;14.75;;;;;;;;3723992;37;21007;-57
2021/05/17 01:22:22;;;;;;;;;14.25;14.25;;;;;;;;3724466;37;20931;-57
2021/05/17 01:24:48;;;;;;;;;17.75;16.00;;;;;;;;3724725;37;20566;-58
2021/05/17 01:27:14;;;;;;;;;18.50;17.00;;;;;;;;3724425;38;20925;-57
2021/05/17 01:29:41;;;;;;;;;16.00;16.00;;;;;;;;3724516;37;20930;-56
2021/05/17 01:32:09;;;;;;;;;16.25;15.00;;;;;;;;3724329;37;20917;-57
2021/05/17 01:34:42;;;;;;;;;16.00;15.25;;;;;;;;3724435;38;20943;-57
2021/05/17 01:37:08;;;;;;;;;14.50;14.50;;;;;;;;3724348;37;20919;-57
2021/05/17 01:39:36;;;;;;;;;19.25;18.50;;;;;;;;3724467;38;20908;-57
2021/05/17 01:42:02;;;;;;;;;13.75;12.75;;;;;;;;3723974;38;20922;-56
2021/05/17 01:44:36;;;;;;;;;17.75;17.25;;;;;;;;3724447;38;20901;-56
2021/05/17 01:47:05;;;;;;;;;16.25;15.50;;;;;;;;3724438;38;20919;-56
2021/05/17 01:49:32;;;;;;;;;13.25;13.00;;;;;;;;3724493;37;20869;-56
2021/05/17 01:51:58;;;;;;;;;15.00;13.25;;;;;;;;3724506;37;20914;-56
2021/05/17 01:54:30;;;;;;;;;18.50;17.00;;;;;;;;3724415;37;20873;-56
2021/05/17 01:56:57;;;;;;;;;15.50;14.00;;;;;;;;3724320;38;20888;-56
2021/05/17 01:59:28;;;;;;;;;16.75;16.75;;;;;;;;3724513;38;20882;-56
2021/05/17 02:01:54;;;;;;;;;13.00;13.00;;;;;;;;3724501;37;17835;-57
2021/05/17 02:04:20;;;;;;;;;15.75;14.25;;;;;;;;3724432;38;20899;-57
2021/05/17 02:06:47;;;;;;;;;16.00;16.00;;;;;;;;3723948;38;20877;-57
2021/05/17 02:09:13;;;;;;;;;12.00;12.00;;;;;;;;3724434;37;17839;-57
2021/05/17 02:11:39;;;;;;;;;14.50;14.50;;;;;;;;3724190;37;20827;-57
2021/05/17 02:14:06;;;;;;;;;19.00;17.50;;;;;;;;3724432;37;20865;-57
2021/05/17 02:16:32;;;;;;;;;18.00;17.25;;;;;;;;3724491;37;17814;-57
2021/05/17 02:18:58;;;;;;;;;6.75;6.75;;;;;;;;3724185;38;20879;-57
2021/05/17 02:21:29;;;;;;;;;20.00;18.75;;;;;;;;3724506;38;20715;-56
2021/05/17 02:23:56;;;;;;;;;17.00;15.50;;;;;;;;3724451;37;20878;-57
2021/05/17 02:26:22;;;;;;;;;15.00;14.50;;;;;;;;3724089;37;20928;-57
2021/05/17 02:28:52;;;;;;;;;18.50;17.50;;;;;;;;3724429;37;20832;-56
2021/05/17 02:31:18;;;;;;;;;14.00;13.50;;;;;;;;3724350;37;20828;-57
2021/05/17 02:33:45;;;;;;;;;15.25;15.25;;;;;;;;3724444;37;20894;-58
2021/05/17 02:36:11;;;;;;;;;17.25;17.25;;;;;;;;3724457;37;17793;-58
2021/05/17 02:38:37;;;;;;;;;17.25;16.75;;;;;;;;3724385;37;20825;-56
2021/05/17 02:41:04;;;;;;;;;14.25;14.25;;;;;;;;3724347;38;20940;-56
2021/05/17 02:43:31;;;;;;;;;15.50;14.75;;;;;;;;3724330;37;20838;-56
2021/05/17 02:45:59;;;;;;;;;18.75;18.75;;;;;;;;3724447;37;20844;-56
2021/05/17 02:48:29;;;;;;;;;23.50;22.25;;;;;;;;3724349;37;20810;-56
2021/05/17 02:50:55;;;;;;;;;19.50;19.50;;;;;;;;3724462;38;20842;-56
2021/05/17 02:53:53;;;;;;;;;17.25;17.25;;;;;;;;3724473;38;20838;-57
2021/05/17 02:56:30;;;;;;;;;14.75;14.75;;;;;;;;3724469;38;20850;-57
2021/05/17 02:58:57;;;;;;;;;18.00;17.75;;;;;;;;3724427;38;20812;-56
2021/05/17 03:01:28;;;;;;;;;21.25;20.50;;;;;;;;3724490;37;20818;-56
2021/05/17 03:03:57;;;;;;;;;19.00;18.25;;;;;;;;3724548;38;20824;-55
2021/05/17 03:06:27;;;;;;;;;16.75;16.50;;;;;;;;3724448;37;20814;-56
2021/05/17 03:09:01;;;;;;;;;15.25;15.25;;;;;;;;3724430;38;20794;-56
2021/05/17 03:11:28;;;;;;;;;19.50;19.50;;;;;;;;3724280;37;20790;-56
2021/05/17 03:13:56;;;;;;;;;21.00;19.50;;;;;;;;3724442;37;20786;-55
2021/05/17 03:16:24;;;;;;;;;19.25;19.25;;;;;;;;3724681;37;20794;-55
2021/05/17 03:18:51;;;;;;;;;26.25;24.00;;;;;;;;3724371;38;20767;-56
2021/05/17 03:21:20;;;;;;;;;22.25;18.75;;;;;;;;3724041;38;20804;-56
2021/05/17 03:23:47;;;;;;;;;19.50;19.50;;;;;;;;3724466;37;20452;-57
2021/05/17 03:26:22;;;;;;;;;18.50;18.50;;;;;;;;3724563;37;20771;-57
2021/05/17 03:28:47;;;;;;;;;17.50;17.25;;;;;;;;3724766;38;20786;-56
2021/05/17 03:31:14;;;;;;;;;17.25;17.25;;;;;;;;3724547;38;20764;-57
2021/05/17 03:33:41;;;;;;;;;21.75;20.75;;;;;;;;3724457;37;20768;-56
2021/05/17 03:36:07;;;;;;;;;22.25;21.75;;;;;;;;3724159;37;17882;-56
2021/05/17 03:38:35;;;;;;;;;23.75;23.00;;;;;;;;3724451;38;20768;-56
2021/05/17 03:41:00;;;;;;;;;24.25;23.00;;;;;;;;3724399;38;20561;-56
2021/05/17 03:43:26;;;;;;;;;22.25;21.75;;;;;;;;3724549;37;17725;-56
2021/05/17 03:45:52;;;;;;;;;22.00;21.50;;;;;;;;3724607;37;17717;-56
2021/05/17 03:48:18;;;;;;;;;22.00;21.00;;;;;;;;3724609;38;17691;-56
2021/05/17 03:50:45;;;;;;;;;26.00;23.25;;;;;;;;3724850;37;17734;-56
2021/05/17 03:53:11;;;;;;;;;18.00;17.25;;;;;;;;3724349;38;20727;-56
2021/05/17 03:55:38;;;;;;;;;20.50;20.25;;;;;;;;3724837;37;20733;-57
2021/05/17 03:58:04;;;;;;;;;21.50;20.25;;;;;;;;3724598;37;20713;-58
2021/05/17 04:00:31;;;;;;;;;21.00;20.00;;;;;;;;3724672;37;17695;-56
2021/05/17 04:02:59;;;;;;;;;19.25;18.75;;;;;;;;3724576;37;17688;-57
2021/05/17 04:05:39;;;;;;;;;19.00;18.50;;;;;;;;3724492;37;20727;-57
2021/05/17 04:12:30;;;;;;;;;23.75;22.75;;;;;;;;3724550;37;20719;-57
2021/05/17 04:13:36;;;;;;;;;19.50;18.50;;;;;;;;3724244;38;20662;-57
2021/05/17 04:16:02;;;;;;;;;19.75;19.00;;;;;;;;3724758;37;20692;-57
2021/05/17 04:18:28;;;;;;;;;20.25;19.50;;;;;;;;3724456;37;18654;-58
2021/05/17 04:20:55;;;;;;;;;18.25;18.00;;;;;;;;3724427;38;21772;-57
2021/05/17 04:23:22;;;;;;;;;16.25;16.25;;;;;;;;3724437;38;21689;-58
2021/05/17 04:25:48;;;;;;;;;20.75;20.50;;;;;;;;3724394;37;17660;-57
2021/05/17 04:28:13;;;;;;;;;19.00;19.00;;;;;;;;3724717;37;20701;-58
2021/05/17 04:30:39;;;;;;;;;18.00;17.00;;;;;;;;3724239;37;21680;-57
2021/05/17 04:33:05;;;;;;;;;18.75;18.50;;;;;;;;3724724;37;18638;-58
2021/05/17 04:35:31;;;;;;;;;20.25;17.75;;;;;;;;3724411;37;18623;-56
2021/05/17 04:37:57;;;;;;;;;16.50;16.50;;;;;;;;3724517;37;21687;-57
2021/05/17 04:40:23;;;;;;;;;15.75;14.25;;;;;;;;3724723;38;21792;-57
2021/05/17 04:42:49;;;;;;;;;13.75;13.75;;;;;;;;3724485;37;18647;-58
2021/05/17 04:45:16;;;;;;;;;16.75;16.25;;;;;;;;3724637;38;18628;-57
2021/05/17 04:47:41;;;;;;;;;17.25;14.00;;;;;;;;3724504;38;21670;-58
2021/05/17 04:50:08;;;;;;;;;12.25;12.25;;;;;;;;3724661;37;21629;-58
2021/05/17 04:52:34;;;;;;;;;15.00;15.00;;;;;;;;3725152;38;18609;-57
2021/05/17 04:55:00;;;;;;;;;14.75;14.00;;;;;;;;3726507;38;21636;-58
2021/05/17 04:57:26;;;;;;;;;8.50;8.50;;;;;;;;3724820;37;21662;-58
2021/05/17 04:59:52;;;;;;;;;6.75;6.75;;;;;;;;3724779;37;18590;-57
2021/05/17 05:02:18;;;;;;;;;7.75;7.75;;;;;;;;3724904;37;21629;-58
2021/05/17 05:04:44;;;;;;;;;7.75;7.50;;;;;;;;3724967;38;21532;-58
2021/05/17 05:07:10;;;;;;;;;9.00;8.25;;;;;;;;3724906;37;21551;-57
2021/05/17 05:09:36;;;;;;;;;6.75;6.75;;;;;;;;3725212;37;18586;-58
2021/05/17 05:12:02;;;;;;;;;6.00;5.75;;;;;;;;3725294;38;18605;-57
2021/05/17 05:14:27;;;;;;;;;5.25;5.25;;;;;;;;3725026;37;18563;-57
2021/05/17 05:16:53;;;;;;;;;6.25;6.00;;;;;;;;3724544;37;21573;-57
2021/05/17 05:19:19;;;;;;;;;6.00;6.00;;;;;;;;3724982;38;18585;-58
2021/05/17 05:21:44;;;;;;;;;8.00;8.00;;;;;;;;3725278;37;18560;-58
2021/05/17 05:24:10;;;;;;;;;6.00;6.00;;;;;;;;3725405;37;18567;-57
2021/05/17 05:29:43;;;;;;;;;9.00;6.25;;;;;;;;3727296;38;18528;-59
2021/05/17 05:34:59;;;;;;;;;5.00;5.00;;;;;;;;3725420;37;21563;-58
2021/05/17 05:37:25;;;;;;;;;6.00;5.00;;;;;;;;3725595;38;21559;-58
2021/05/17 05:39:50;;;;;;;;;5.75;5.75;;;;;;;;3725722;38;21562;-55
2021/05/17 05:42:17;;;;;;;;;8.25;7.75;;;;;;;;3725887;37;18550;-58
2021/05/17 05:44:44;;;;;;;;;6.00;6.00;;;;;;;;3725696;38;18569;-58
2021/05/17 05:47:23;;;;;;;;;5.00;5.00;;;;;;;;3725577;38;21523;-58
2021/05/17 05:49:49;;;;;;;;;5.50;5.00;;;;;;;;3725641;38;21544;-58
2021/05/17 05:52:16;;;;;;;;;6.00;5.00;;;;;;;;3725620;38;21527;-57
2021/05/17 05:54:44;;;;;;;;;5.00;5.00;;;;;;;;3725331;37;21546;-57
2021/05/17 05:57:10;;;;;;;;;6.00;5.25;;;;;;;;3725145;38;21515;-57
2021/05/17 05:59:36;;;;;;;;;3.00;3.00;;;;;;;;3725283;37;21518;-59
2021/05/17 06:02:02;;;;;;;;;5.00;5.00;;;;;;;;3725599;38;21515;-57
2021/05/17 06:04:28;;;;;;;;;5.00;5.00;;;;;;;;3725464;37;18519;-58
2021/05/17 06:06:54;;;;;;;;;4.00;4.00;;;;;;;;3725283;38;18529;-62
2021/05/17 06:09:20;;;;;;;;;0.75;0.75;;;;;;;;3727783;38;21516;-60
2021/05/17 06:11:46;;;;;;;;;2.50;2.50;;;;;;;;3725158;37;18514;-59
2021/05/17 06:14:12;;;;;;;;;3.25;2.25;;;;;;;;3724696;37;18518;-60
2021/05/17 06:16:38;;;;;;;;;6.75;6.75;;;;;;;;3724624;37;21401;-61
2021/05/17 06:19:05;;;;;;;;;4.50;4.50;;;;;;;;3724661;38;21483;-61
2021/05/17 06:21:31;;;;;;;;;3.75;3.75;;;;;;;;3724837;37;21512;-63
2021/05/17 06:23:58;;;;;;;;;2.25;2.00;;;;;;;;3724668;37;21455;-61
2021/05/17 06:26:31;;;;;;;;;3.75;3.25;;;;;;;;3724811;38;21544;-60
2021/05/17 06:28:57;;;;;;;;;3.00;3.00;;;;;;;;3724950;37;21511;-60
2021/05/17 06:31:23;;;;;;;;;3.00;3.00;;;;;;;;3724779;37;21490;-61
2021/05/17 06:33:50;;;;;;;;;2.25;2.25;;;;;;;;3724844;37;21523;-59
2021/05/17 06:36:16;;;;;;;;;4.75;4.25;;;;;;;;3725072;37;21447;-60
2021/05/17 06:38:44;;;;;;;;;4.50;4.00;;;;;;;;3724960;38;21457;-58
2021/05/17 06:41:11;;;;;;;;;2.00;2.00;;;;;;;;3724932;38;21428;-59
2021/05/17 06:43:38;;;;;;;;;3.25;3.25;;;;;;;;3724931;37;21430;-58
2021/05/17 06:46:04;;;;;;;;;91.25;86.25;;;;;;;;3724900;37;21478;-59
2021/05/17 06:48:31;;;;;;;;;3.25;3.25;;;;;;;;3724997;37;18477;-59
2021/05/17 06:50:57;;;;;;;;;4.00;4.00;;;;;;;;3724891;37;21621;-58
2021/05/17 06:53:24;;;;;;;;;4.50;3.25;;;;;;;;3724433;38;21474;-60
2021/05/17 06:56:06;;;;;;;;;3.00;3.00;;;;;;;;3724682;38;21473;-60
2021/05/17 06:58:47;;;;;;;;;5.50;5.50;;;;;;;;3724870;37;21444;-58
2021/05/17 07:01:14;;;;;;;;;2.25;2.25;;;;;;;;3725341;38;21433;-60
2021/05/17 07:03:41;;;;;;;;;405.17;351.17;;;;;;;;3725068;37;21721;-60
2021/05/17 07:06:10;;;;;;;;;6.75;6.75;;;;;;;;3724959;38;18431;-59
2021/05/17 07:11:40;;;;;;;;;13.75;13.75;;;;;;;;3725076;37;21311;-60
2021/05/17 07:14:06;;;;;;;;;35.50;32.50;;;;;;;;3724628;38;21522;-59
2021/05/17 07:16:32;;;;;;;;;6.00;6.00;;;;;;;;3724627;37;21511;-61
2021/05/17 07:18:59;;;;;;;;;3.25;3.25;;;;;;;;3724776;37;18422;-60
2021/05/17 07:24:11;;;;;;;;;5.00;5.00;;;;;;;;3724886;38;21560;-59
2021/05/17 07:26:37;;;;;;;;;4.00;4.00;;;;;;;;3724877;37;21412;-60
2021/05/17 07:29:05;;;;;;;;;1.25;1.25;;;;;;;;3724919;37;21405;-62
2021/05/17 07:31:31;;;;;;;;;3.00;3.00;;;;;;;;3724949;37;21386;-61
2021/05/17 07:33:57;;;;;;;;;3.00;3.00;;;;;;;;3725214;38;21398;-61
2021/05/17 07:36:23;;;;;;;;;5.00;5.00;;;;;;;;3725104;37;18381;-61
2021/05/17 07:38:51;;;;;;;;;5.00;5.00;;;;;;;;3724920;37;18390;-61
2021/05/17 07:41:17;;;;;;;;;5.25;5.25;;;;;;;;3725012;38;21366;-60
2021/05/17 07:43:42;;;;;;;;;5.00;4.25;;;;;;;;3724992;37;21348;-60
2021/05/17 07:46:08;;;;;;;;;4.00;4.00;;;;;;;;3725165;38;18393;-60
2021/05/17 07:49:01;;;;;;;;;6.50;6.50;;;;;;;;3725074;37;18395;-60
2021/05/17 07:51:21;;;;;;;;;5.00;5.00;;;;;;;;3725020;38;18311;-60
2021/05/17 07:53:47;;;;;;;;;3.00;3.00;;;;;;;;3725155;38;21352;-60
2021/05/17 07:56:14;;;;;;;;;4.75;4.75;;;;;;;;3724954;38;21333;-59
2021/05/17 07:58:49;;;;;;;;;3.50;3.50;;;;;;;;3725190;38;18366;-59
2021/05/17 08:01:14;;;;;;;;;5.00;5.00;;;;;;;;3725530;38;21368;-59
2021/05/17 08:03:40;;;;;;;;;5.25;5.25;;;;;;;;3725182;37;21388;-60
2021/05/17 08:06:07;;;;;;;;;6.00;6.00;;;;;;;;3724838;37;18359;-59
2021/05/17 08:08:34;;;;;;;;;5.00;5.00;;;;;;;;3724754;38;18362;-59
2021/05/17 08:11:00;;;;;;;;;5.00;5.00;;;;;;;;3724447;37;21328;-60
2021/05/17 08:13:28;;;;;;;;;4.00;4.00;;;;;;;;3724976;38;21357;-59
2021/05/17 08:15:54;;;;;;;;;5.00;5.00;;;;;;;;3724353;37;21351;-63
2021/05/17 08:18:21;;;;;;;;;4.00;4.00;;;;;;;;3724715;37;21340;-61
2021/05/17 08:20:47;;;;;;;;;5.00;5.00;;;;;;;;3724916;38;21361;-60
2021/05/17 08:23:17;;;;;;;;;4.50;4.50;;;;;;;;3724895;37;21306;-61
2021/05/17 08:25:44;;;;;;;;;4.00;4.00;;;;;;;;3724809;37;18321;-61
2021/05/17 08:28:10;;;;;;;;;5.00;5.00;;;;;;;;3725186;37;21327;-59
2021/05/17 08:30:46;;;;;;;;;3.00;3.00;;;;;;;;3724972;38;21347;-59
2021/05/17 08:33:12;;;;;;;;;4.75;4.75;;;;;;;;3724996;38;21323;-60
2021/05/17 08:35:38;;;;;;;;;4.75;4.50;;;;;;;;3725097;37;21295;-60
2021/05/17 08:38:04;;;;;;;;;5.00;5.00;;;;;;;;3725180;37;21284;-60
2021/05/17 08:40:33;;;;;;;;;5.00;5.00;;;;;;;;3725024;38;21291;-61
2021/05/17 08:43:00;;;;;;;;;5.00;5.00;;;;;;;;3725387;37;18298;-65
2021/05/17 08:45:25;;;;;;;;;7.25;7.25;;;;;;;;3725848;37;21275;-61
2021/05/17 08:47:52;;;;;;;;;5.00;4.25;;;;;;;;3725001;38;21303;-61
2021/05/17 08:50:25;;;;;;;;;5.75;5.75;;;;;;;;3724395;38;18313;-62
2021/05/17 08:52:51;;;;;;;;;6.00;6.00;;;;;;;;3725105;38;21303;-59
2021/05/17 08:55:18;;;;;;;;;4.25;4.25;;;;;;;;3725171;38;21253;-60
2021/05/17 08:57:47;;;;;;;;;5.00;5.00;;;;;;;;3725156;37;21269;-61
2021/05/17 09:00:15;;;;;;;;;4.75;4.75;;;;;;;;3725229;38;21318;-60
2021/05/17 09:02:41;;;;;;;;;5.00;5.00;;;;;;;;3725769;37;21262;-60
2021/05/17 09:05:08;;;;;;;;;5.00;5.00;;;;;;;;3725434;37;21282;-60
2021/05/17 09:07:35;;;;;;;;;6.00;5.00;;;;;;;;3724955;38;18263;-61
2021/05/17 09:10:11;;;;;;;;;5.50;5.50;;;;;;;;3724613;38;21569;-61
2021/05/17 09:12:51;;;;;;;;;5.75;5.75;;;;;;;;3724776;37;21114;-60
2021/05/17 09:15:17;;;;;;;;;5.00;5.00;;;;;;;;3724927;37;21427;-61
2021/05/17 09:17:58;;;;;;;;;4.00;4.00;;;;;;;;3724711;37;21509;-61
2021/05/17 09:20:34;;;;;;;;;6.50;6.25;;;;;;;;3723907;37;21347;-60
2021/05/17 09:23:17;;;;;;;;;5.00;5.00;;;;;;;;3724643;37;21426;-60
2021/05/17 09:25:57;;;;;;;;;5.00;5.00;;;;;;;;3724383;38;21281;-61
2021/05/17 09:28:33;;;;;;;;;5.25;5.25;;;;;;;;3724934;38;21423;-61
2021/05/17 09:31:05;;;;;;;;;6.00;5.00;;;;;;;;3724679;37;21212;-60
2021/05/17 09:34:04;;;;;;;;;4.25;4.25;;;;;;;;3724744;38;21423;-60
2021/05/17 09:36:32;;;;;;;;;4.75;4.75;;;;;;;;3724930;37;21437;-60
2021/05/17 09:38:59;;;;;;;;;4.25;4.00;;;;;;;;3724753;37;21370;-58
2021/05/17 09:41:37;;;;;;;;;4.25;4.25;;;;;;;;3724714;37;21425;-57
2021/05/17 09:44:03;;;;;;;;;4.00;4.00;;;;;;;;3725071;38;21410;-58
2021/05/17 09:46:29;;;;;;;;;6.00;5.00;;;;;;;;3724914;38;21199;-58
2021/05/17 09:48:57;;;;;;;;;6.25;5.00;;;;;;;;3724866;38;21235;-59
2021/05/17 09:51:22;;;;;;;;;4.00;4.00;;;;;;;;3724644;37;21222;-58
2021/05/17 09:53:49;;;;;;;;;5.00;5.00;;;;;;;;3725121;38;21390;-58
2021/05/17 09:56:20;;;;;;;;;4.00;3.50;;;;;;;;3724995;38;18215;-59
2021/05/17 09:58:47;;;;;;;;;4.00;4.00;;;;;;;;3724806;38;21205;-58
2021/05/17 10:01:39;;;;;;;;;4.00;4.00;;;;;;;;3724655;37;21193;-59
2021/05/17 10:04:05;;;;;;;;;5.00;5.00;;;;;;;;3724756;38;21411;-60
2021/05/17 10:06:32;;;;;;;;;4.75;4.00;;;;;;;;3724863;37;21216;-58
2021/05/17 10:08:58;;;;;;;;;4.00;4.00;;;;;;;;3724787;37;21373;-57
2021/05/17 10:11:26;;;;;;;;;3.50;3.25;;;;;;;;3724792;37;21379;-58
2021/05/17 10:13:52;;;;;;;;;3.00;3.00;;;;;;;;3724727;38;18178;-58
2021/05/17 10:16:19;;;;;;;;;4.75;4.75;;;;;;;;3724922;38;21368;-58
2021/05/17 10:18:46;;;;;;;;;3.00;3.00;;;;;;;;3724302;38;21363;-59
2021/05/17 10:21:13;;;;;;;;;4.00;4.00;;;;;;;;3724633;37;21351;-58
2021/05/17 10:23:41;;;;;;;;;3.00;3.00;;;;;;;;3724918;37;21370;-58
2021/05/17 10:26:20;;;;;;;;;3.75;3.25;;;;;;;;3724776;37;21349;-59
2021/05/17 10:28:50;;;;;;;;;2.50;2.50;;;;;;;;3724964;37;21346;-58
2021/05/17 10:31:17;;;;;;;;;5.00;4.00;;;;;;;;3724872;37;21352;-58
2021/05/17 10:33:45;;;;;;;;;3.50;3.00;;;;;;;;3724402;37;21337;-58
2021/05/17 10:36:11;;;;;;;;;1.75;1.75;;;;;;;;3724627;37;21187;-58
2021/05/17 10:38:48;;;;;;;;;3.00;3.00;;;;;;;;3724792;38;21350;-58
2021/05/17 10:41:37;;;;;;;;;3.00;3.00;;;;;;;;3724828;37;18163;-58
2021/05/17 10:47:07;;;;;;;;;2.50;2.50;;;;;;;;3724616;38;21314;-58
2021/05/17 10:49:36;;;;;;;;;2.00;2.00;;;;;;;;3724663;37;21320;-58
2021/05/17 10:52:19;;;;;;;;;3.25;3.00;;;;;;;;3724788;37;18136;-58
2021/05/17 10:54:47;;;;;;;;;3.00;3.00;;;;;;;;3724925;37;21356;-60
2021/05/17 10:57:19;;;;;;;;;4.00;4.00;;;;;;;;3724916;37;21154;-59
2021/05/17 11:02:36;;;;;;;;;3.00;3.00;;;;;;;;3724769;38;21271;-59
2021/05/17 11:05:18;;;;;;;;;4.00;4.00;;;;;;;;3724693;38;21313;-58
2021/05/17 11:07:51;;;;;;;;;4.00;3.25;;;;;;;;3724708;37;21314;-59
2021/05/17 11:10:24;;;;;;;;;3.50;3.50;;;;;;;;3724791;37;21145;-59
2021/05/17 11:12:57;;;;;;;;;2.75;2.00;;;;;;;;3724770;38;21276;-59
2021/05/17 11:15:24;;;;;;;;;2.75;2.75;;;;;;;;3724849;37;21275;-59
2021/05/17 11:18:11;;;;;;;;;3.00;3.00;;;;;;;;3724447;38;21271;-59
2021/05/17 11:20:50;;;;;;;;;3.00;3.00;;;;;;;;3724867;38;21291;-59
2021/05/17 11:23:17;;;;;;;;;3.75;3.75;;;;;;;;3725428;37;21264;-61
2021/05/17 11:26:07;;;;;;;;;4.50;4.00;;;;;;;;3724661;37;21042;-60
2021/05/17 11:28:56;;;;;;;;;3.00;3.00;;;;;;;;3724563;38;21257;-58
2021/05/17 11:31:43;;;;;;;;;2.50;2.50;;;;;;;;3724772;38;21261;-59
2021/05/17 11:34:19;;;;;;;;;4.00;4.00;;;;;;;;3724606;37;21275;-60
2021/05/17 11:36:53;;;;;;;;;5.50;5.50;;;;;;;;3724659;38;21100;-59
2021/05/17 11:39:27;;;;;;;;;4.00;4.00;;;;;;;;3724614;38;21056;-60
2021/05/17 11:42:05;;;;;;;;;2.75;2.75;;;;;;;;3724606;38;20877;-60
2021/05/17 11:44:47;;;;;;;;;3.00;3.00;;;;;;;;3724167;38;21225;-58
2021/05/17 11:47:15;;;;;;;;;3.75;3.75;;;;;;;;3724612;37;21247;-59
2021/05/17 11:49:44;;;;;;;;;3.75;3.00;;;;;;;;3724595;37;21154;-59
2021/05/17 11:52:12;;;;;;;;;3.00;3.00;;;;;;;;3724553;37;21311;-61
2021/05/17 11:54:42;;;;;;;;;4.00;3.00;;;;;;;;3724391;37;21251;-59
2021/05/17 11:57:10;;;;;;;;;2.00;2.00;;;;;;;;3724584;37;21246;-59
2021/05/17 11:59:36;;;;;;;;;2.25;2.25;;;;;;;;3724578;38;21223;-59
2021/05/17 12:02:03;;;;;;;;;2.00;2.00;;;;;;;;3724858;37;21249;-60
2021/05/17 12:04:35;;;;;;;;;2.25;2.25;;;;;;;;3725076;38;18052;-59
2021/05/17 12:07:05;;;;;;;;;3.00;3.00;;;;;;;;3724673;37;21237;-59
2021/05/17 12:09:38;;;;;;;;;2.25;2.25;;;;;;;;3724609;37;21204;-59
2021/05/17 12:12:08;;;;;;;;;2.75;2.75;;;;;;;;3724623;38;21199;-60
2021/05/17 12:14:34;;;;;;;;;4.75;4.00;;;;;;;;3724659;38;21230;-59
2021/05/17 12:17:05;;;;;;;;;3.00;3.00;;;;;;;;3724546;37;21223;-59
2021/05/17 12:19:31;;;;;;;;;3.00;3.00;;;;;;;;3724743;38;21195;-59
2021/05/17 12:21:58;;;;;;;;;2.00;2.00;;;;;;;;3724471;37;21024;-60
2021/05/17 12:24:30;;;;;;;;;3.00;3.00;;;;;;;;3724584;37;18024;-58
2021/05/17 12:27:00;;;;;;;;;2.00;2.00;;;;;;;;3724573;37;21204;-58
2021/05/17 12:29:49;;;;;;;;;2.75;2.00;;;;;;;;3724695;38;21207;-58
2021/05/17 12:32:15;;;;;;;;;6.00;6.00;;;;;;;;3724587;37;21211;-58
2021/05/17 12:34:57;;;;;;;;;6.25;5.50;;;;;;;;3724526;37;21022;-58
2021/05/17 12:37:23;;;;;;;;;4.00;4.00;;;;;;;;3724913;37;17978;-58
2021/05/17 12:40:07;;;;;;;;;4.00;4.00;;;;;;;;3724694;37;21191;-58
2021/05/17 12:42:33;;;;;;;;;3.25;3.25;;;;;;;;3724793;38;21021;-58
2021/05/17 12:45:07;;;;;;;;;2.75;2.75;;;;;;;;3724655;38;21172;-58
2021/05/17 12:47:43;;;;;;;;;3.00;3.00;;;;;;;;3724662;37;17988;-58
2021/05/17 12:50:19;;;;;;;;;5.25;4.50;;;;;;;;3724617;37;21160;-59
2021/05/17 12:52:46;;;;;;;;;2.25;2.25;;;;;;;;3724607;37;20663;-58
2021/05/17 12:55:22;;;;;;;;;4.00;2.75;;;;;;;;3724483;37;21002;-59
2021/05/17 12:58:02;;;;;;;;;2.00;2.00;;;;;;;;3724554;38;21147;-59
2021/05/17 13:00:39;;;;;;;;;3.00;3.00;;;;;;;;3724838;37;20932;-58
2021/05/17 13:03:16;;;;;;;;;3.25;2.75;;;;;;;;3724872;38;21130;-58
2021/05/17 13:06:16;;;;;;;;;2.75;2.75;;;;;;;;3724807;37;20844;-58
2021/05/17 13:08:44;;;;;;;;;4.50;3.50;;;;;;;;3724813;37;21142;-57
2021/05/17 13:11:28;;;;;;;;;3.00;3.00;;;;;;;;3724588;37;20955;-57
2021/05/17 13:14:27;;;;;;;;;4.00;4.00;;;;;;;;3724802;38;21004;-57
2021/05/17 13:17:03;;;;;;;;;5.00;5.00;;;;;;;;3724770;37;21128;-60
2021/05/17 13:30:00;;;;;;;;;4.75;4.75;;;;;;;;3724779;37;20960;-59
2021/05/17 13:30:55;;;;;;;;;3.00;3.00;;;;;;;;3724497;37;20907;-57
2021/05/17 13:33:32;;;;;;;;;3.00;3.00;;;;;;;;3724577;38;20930;-58
2021/05/17 13:36:03;;;;;;;;;1.00;1.00;;;;;;;;3724815;38;20913;-59
2021/05/17 13:38:30;;;;;;;;;3.25;3.25;;;;;;;;3724759;37;20924;-58
2021/05/17 13:40:56;;;;;;;;;3.00;3.00;;;;;;;;3724514;37;20933;-58
2021/05/17 13:43:24;;;;;;;;;8.25;8.25;;;;;;;;3724633;38;20891;-59
2021/05/17 13:45:50;;;;;;;;;3.00;3.00;;;;;;;;3724826;38;20830;-59
2021/05/17 13:48:16;;;;;;;;;3.50;2.50;;;;;;;;3724722;38;21097;-57
2021/05/17 13:50:42;;;;;;;;;2.75;2.75;;;;;;;;3724850;37;17936;-58
2021/05/17 13:53:10;;;;;;;;;3.00;3.00;;;;;;;;3724475;37;17902;-59
2021/05/17 13:55:37;;;;;;;;;2.75;2.75;;;;;;;;3724836;37;20939;-59
2021/05/17 13:58:05;;;;;;;;;1.00;1.00;;;;;;;;3724743;38;20928;-57
2021/05/17 14:00:31;;;;;;;;;4.50;3.75;;;;;;;;3724473;37;20894;-60
2021/05/17 14:02:57;;;;;;;;;2.00;2.00;;;;;;;;3725503;37;17891;-58
2021/05/17 14:05:24;;;;;;;;;2.00;2.00;;;;;;;;3724854;38;20861;-58
2021/05/17 14:07:50;;;;;;;;;3.00;3.00;;;;;;;;3724470;38;21063;-59
2021/05/17 14:10:17;;;;;;;;;2.50;2.50;;;;;;;;3724405;38;21081;-58
2021/05/17 14:12:43;;;;;;;;;2.25;2.25;;;;;;;;3724507;37;21053;-59
2021/05/17 14:15:10;;;;;;;;;2.00;2.00;;;;;;;;3724411;38;21080;-59
2021/05/17 14:17:36;;;;;;;;;3.00;2.50;;;;;;;;3724427;38;21053;-58
2021/05/17 14:20:01;;;;;;;;;2.00;2.00;;;;;;;;3724616;38;20899;-59
2021/05/17 14:22:29;;;;;;;;;2.75;2.75;;;;;;;;3724694;38;17866;-59
2021/05/17 14:24:54;;;;;;;;;3.00;3.00;;;;;;;;3724781;38;17883;-58
2021/05/17 14:27:20;;;;;;;;;2.50;2.50;;;;;;;;3724918;37;20874;-58
2021/05/17 14:29:46;;;;;;;;;3.75;3.00;;;;;;;;3724634;38;17880;-58
2021/05/17 14:32:12;;;;;;;;;4.25;4.25;;;;;;;;3724677;38;17858;-58
2021/05/17 14:34:38;;;;;;;;;3.00;3.00;;;;;;;;3724911;38;17833;-58
2021/05/17 14:37:07;;;;;;;;;4.00;4.00;;;;;;;;3724885;38;17822;-59
2021/05/17 14:39:33;;;;;;;;;21.00;20.00;;;;;;;;3724880;37;17832;-58
2021/05/17 14:41:59;;;;;;;;;3.25;2.75;;;;;;;;3724623;37;20943;-58
2021/05/17 14:44:25;;;;;;;;;3.50;3.50;;;;;;;;3724968;37;17835;-59
2021/05/17 14:46:51;;;;;;;;;3.25;3.25;;;;;;;;3725042;38;17836;-59
2021/05/17 14:49:18;;;;;;;;;3.00;3.00;;;;;;;;3724767;38;20981;-59
2021/05/17 14:51:44;;;;;;;;;3.00;3.00;;;;;;;;3724033;37;20831;-58
2021/05/17 14:54:09;;;;;;;;;2.00;2.00;;;;;;;;3724684;37;20803;-58
2021/05/17 14:56:37;;;;;;;;;2.00;2.00;;;;;;;;3724663;37;17788;-59
2021/05/17 14:59:03;;;;;;;;;2.50;2.50;;;;;;;;3724303;37;17813;-59
2021/05/17 15:01:29;;;;;;;;;2.25;2.25;;;;;;;;3724433;37;20826;-60
2021/05/17 15:03:55;;;;;;;;;3.00;3.00;;;;;;;;3724687;38;17793;-59
2021/05/17 15:06:21;;;;;;;;;3.00;2.50;;;;;;;;3724807;37;17786;-58
2021/05/17 15:08:48;;;;;;;;;3.00;3.00;;;;;;;;3724662;37;17788;-59
2021/05/17 15:11:14;;;;;;;;;2.50;2.50;;;;;;;;3724755;37;20788;-58
2021/05/17 15:13:40;;;;;;;;;2.50;2.50;;;;;;;;3724807;38;17802;-57